createdAt,value
2023-01-26T00:01:37.351Z,83.80
2023-01-26T00:04:04.384Z,83.80
2023-01-26T00:06:31.334Z,83.80
2023-01-26T00:08:58.008Z,83.80
2023-01-26T00:11:27.405Z,83.80
2023-01-26T00:13:58.411Z,83.90
2023-01-26T00:16:26.121Z,83.90
2023-01-26T00:18:54.014Z,83.90
2023-01-26T00:21:23.190Z,84.00
2023-01-26T00:23:51.045Z,84.00
2023-01-26T00:26:20.805Z,84.10
2023-01-26T00:31:31.169Z,84.10
2023-01-26T00:33:58.163Z,84.10
2023-01-26T00:36:25.111Z,84.10
2023-01-26T00:38:51.789Z,84.20
2023-01-26T00:41:37.306Z,84.10
2023-01-26T00:44:04.058Z,84.20
2023-01-26T00:46:38.254Z,84.20
2023-01-26T00:49:05.136Z,84.20
2023-01-26T00:51:31.766Z,84.20
2023-01-26T00:53:58.422Z,84.20
2023-01-26T00:56:28.171Z,84.20
2023-01-26T00:58:54.994Z,84.30
2023-01-26T01:01:21.716Z,84.30
2023-01-26T01:03:52.443Z,84.30
2023-01-26T01:06:20.179Z,84.30
2023-01-26T01:08:46.912Z,84.30
2023-01-26T01:11:13.868Z,84.30
2023-01-26T01:13:41.003Z,84.50
2023-01-26T01:16:10.269Z,84.70
2023-01-26T01:18:37.278Z,84.60
2023-01-26T01:21:12.085Z,84.60
2023-01-26T01:23:39.031Z,84.60
2023-01-26T01:26:06.136Z,84.50
2023-01-26T01:28:34.613Z,84.50
2023-01-26T01:31:05.514Z,84.60
2023-01-26T01:33:32.255Z,84.70
2023-01-26T01:35:59.888Z,84.70
2023-01-26T01:38:27.533Z,84.70
2023-01-26T01:40:55.811Z,84.70
2023-01-26T01:43:24.039Z,84.70
2023-01-26T01:45:52.216Z,84.60
2023-01-26T01:48:43.476Z,84.70
2023-01-26T01:51:18.868Z,84.70
2023-01-26T01:53:50.573Z,84.70
2023-01-26T01:56:21.804Z,84.80
2023-01-26T01:58:53.678Z,84.70
2023-01-26T02:01:20.490Z,84.80
2023-01-26T02:03:50.585Z,84.70
2023-01-26T02:06:36.266Z,84.80
2023-01-26T02:09:05.547Z,84.80
2023-01-26T02:11:43.891Z,84.80
2023-01-26T02:14:14.430Z,84.80
2023-01-26T02:16:41.116Z,84.90
2023-01-26T02:19:19.709Z,84.80
2023-01-26T02:21:50.155Z,85.00
2023-01-26T02:24:34.227Z,84.90
2023-01-26T02:27:07.226Z,84.90
2023-01-26T02:29:36.859Z,85.10
2023-01-26T02:32:03.639Z,85.00
2023-01-26T02:34:30.449Z,85.10
2023-01-26T02:37:01.218Z,85.00
2023-01-26T02:40:02.544Z,85.10
2023-01-26T02:42:42.142Z,85.10
2023-01-26T02:45:14.362Z,85.20
2023-01-26T02:47:45.333Z,85.20
2023-01-26T02:50:13.510Z,85.10
2023-01-26T02:52:40.452Z,85.10
2023-01-26T02:55:23.164Z,85.20
2023-01-26T02:57:52.263Z,85.20
2023-01-26T03:00:42.694Z,85.30
2023-01-26T03:03:19.646Z,85.30
2023-01-26T03:05:46.755Z,85.30
2023-01-26T03:08:13.526Z,85.30
2023-01-26T03:10:40.214Z,85.40
2023-01-26T03:13:07.799Z,85.40
2023-01-26T03:15:43.597Z,85.50
2023-01-26T03:18:33.633Z,85.50
2023-01-26T03:21:21.091Z,85.60
2023-01-26T03:24:06.747Z,85.60
2023-01-26T03:26:52.964Z,85.50
2023-01-26T03:29:20.173Z,85.60
2023-01-26T03:31:46.996Z,85.50
2023-01-26T03:34:13.792Z,85.60
2023-01-26T03:36:40.689Z,85.60
2023-01-26T03:39:07.451Z,85.70
2023-01-26T03:41:52.665Z,85.80
2023-01-26T03:44:37.833Z,85.70
2023-01-26T03:47:23.795Z,85.80
2023-01-26T03:50:09.434Z,85.70
2023-01-26T03:52:59.601Z,85.80
2023-01-26T03:55:44.737Z,85.90
2023-01-26T03:58:11.622Z,85.80
2023-01-26T04:00:38.439Z,85.90
2023-01-26T04:03:23.827Z,85.90
2023-01-26T04:06:16.502Z,85.90
2023-01-26T04:08:47.387Z,86.00
2023-01-26T04:11:14.486Z,86.00
2023-01-26T04:14:00.072Z,86.00
2023-01-26T04:16:45.365Z,86.00
2023-01-26T04:19:33.657Z,86.00
2023-01-26T04:22:00.961Z,86.00
2023-01-26T04:24:27.757Z,86.10
2023-01-26T04:26:54.494Z,86.10
2023-01-26T04:29:22.923Z,86.10
2023-01-26T04:31:50.615Z,86.20
2023-01-26T04:34:17.460Z,86.20
2023-01-26T04:36:44.360Z,86.20
2023-01-26T04:39:11.471Z,86.30
2023-01-26T04:41:40.111Z,86.30
2023-01-26T04:44:08.610Z,86.30
2023-01-26T04:46:35.459Z,86.30
2023-01-26T04:49:02.202Z,86.30
2023-01-26T04:51:29.040Z,86.40
2023-01-26T04:53:56.355Z,86.50
2023-01-26T04:56:26.623Z,86.50
2023-01-26T04:58:54.727Z,86.50
2023-01-26T05:01:21.627Z,86.50
2023-01-26T05:03:49.277Z,86.60
2023-01-26T05:06:16.421Z,86.50
2023-01-26T05:08:43.370Z,86.60
2023-01-26T05:11:10.925Z,87.40
2023-01-26T05:13:37.846Z,86.70
2023-01-26T05:16:08.014Z,87.50
2023-01-26T05:18:34.911Z,86.60
2023-01-26T05:21:01.797Z,87.30
2023-01-26T05:23:31.383Z,86.60
2023-01-26T05:26:00.410Z,86.60
2023-01-26T05:28:27.437Z,86.60
2023-01-26T05:30:54.300Z,86.70
2023-01-26T05:33:22.251Z,86.70
2023-01-26T05:35:53.229Z,86.70
2023-01-26T05:38:20.788Z,86.80
2023-01-26T05:40:47.672Z,86.80
2023-01-26T05:43:14.814Z,86.90
2023-01-26T05:45:41.649Z,86.90
2023-01-26T05:48:08.476Z,86.90
2023-01-26T05:50:35.259Z,86.90
2023-01-26T05:53:03.105Z,86.80
2023-01-26T05:55:30.088Z,86.90
2023-01-26T05:57:57.059Z,86.80
2023-01-26T06:00:24.421Z,87.70
2023-01-26T06:02:51.463Z,86.90
2023-01-26T06:05:22.293Z,86.90
2023-01-26T06:07:49.044Z,86.90
2023-01-26T06:10:16.481Z,87.60
2023-01-26T06:12:48.918Z,86.90
2023-01-26T06:15:15.973Z,87.00
2023-01-26T06:17:43.145Z,87.00
2023-01-26T06:20:11.322Z,87.00
2023-01-26T06:22:38.285Z,87.00
2023-01-26T06:25:08.359Z,87.00
2023-01-26T06:27:36.132Z,87.00
2023-01-26T06:30:05.480Z,87.00
2023-01-26T06:32:32.370Z,87.00
2023-01-26T06:34:59.128Z,87.00
2023-01-26T06:37:25.875Z,87.10
2023-01-26T06:39:55.986Z,87.00
2023-01-26T06:42:23.688Z,87.00
2023-01-26T06:44:50.512Z,87.20
2023-01-26T06:47:17.240Z,87.10
2023-01-26T06:49:43.962Z,87.20
2023-01-26T06:52:22.907Z,87.20
2023-01-26T06:54:51.377Z,87.30
2023-01-26T06:57:18.207Z,87.20
2023-01-26T06:59:51.621Z,87.20
2023-01-26T07:02:20.943Z,87.20
2023-01-26T07:04:49.019Z,87.30
2023-01-26T07:07:16.137Z,87.30
2023-01-26T07:09:46.111Z,87.30
2023-01-26T07:12:13.059Z,87.30
2023-01-26T07:14:40.143Z,87.40
2023-01-26T07:17:06.909Z,87.40
2023-01-26T07:19:33.982Z,87.40
2023-01-26T07:22:01.889Z,87.40
2023-01-26T07:24:28.916Z,87.40
2023-01-26T07:26:56.506Z,87.30
2023-01-26T07:29:23.322Z,87.40
2023-01-26T07:31:50.218Z,87.50
2023-01-26T07:34:17.294Z,87.50
2023-01-26T07:36:44.133Z,87.50
2023-01-26T07:39:11.122Z,87.50
2023-01-26T07:41:37.840Z,87.50
2023-01-26T07:44:08.029Z,87.50
2023-01-26T07:46:34.834Z,87.50
2023-01-26T07:49:01.578Z,87.50
2023-01-26T07:51:31.119Z,87.50
2023-01-26T07:53:58.963Z,87.50
2023-01-26T07:56:26.000Z,87.70
2023-01-26T07:58:53.828Z,87.70
2023-01-26T08:01:23.445Z,87.70
2023-01-26T08:03:52.138Z,87.70
2023-01-26T08:06:19.813Z,87.70
2023-01-26T08:08:51.194Z,87.70
2023-01-26T08:11:19.558Z,87.70
2023-01-26T08:13:46.529Z,87.80
2023-01-26T08:16:13.932Z,87.80
2023-01-26T08:18:42.826Z,87.80
2023-01-26T08:21:10.974Z,87.80
2023-01-26T08:23:37.929Z,87.80
2023-01-26T08:26:07.069Z,88.60
2023-01-26T08:28:34.706Z,87.80
2023-01-26T08:31:05.672Z,87.70
2023-01-26T08:33:33.263Z,87.80
2023-01-26T08:36:04.443Z,87.90
2023-01-26T08:38:32.670Z,87.90
2023-01-26T08:41:00.731Z,88.00
2023-01-26T08:43:27.840Z,87.90
2023-01-26T08:45:54.978Z,87.90
2023-01-26T08:48:22.101Z,87.90
2023-01-26T08:50:48.999Z,88.00
2023-01-26T08:53:15.774Z,88.00
2023-01-26T08:55:43.807Z,88.00
2023-01-26T08:58:10.696Z,88.00
2023-01-26T09:00:37.397Z,87.90
2023-01-26T09:03:05.763Z,88.00
2023-01-26T09:05:35.154Z,87.90
2023-01-26T09:08:02.886Z,88.00
2023-01-26T09:10:29.756Z,88.70
2023-01-26T09:12:58.523Z,88.10
2023-01-26T09:15:25.410Z,88.20
2023-01-26T09:17:52.227Z,88.20
2023-01-26T09:20:20.222Z,88.20
2023-01-26T09:22:47.905Z,88.20
2023-01-26T09:25:14.880Z,88.30
2023-01-26T09:27:41.971Z,88.20
2023-01-26T09:30:09.503Z,88.30
2023-01-26T09:32:36.300Z,88.40
2023-01-26T09:35:03.271Z,88.20
2023-01-26T09:37:29.988Z,88.20
2023-01-26T09:39:59.151Z,88.30
2023-01-26T09:42:51.925Z,88.30
2023-01-26T09:45:30.896Z,88.40
2023-01-26T09:48:03.638Z,88.50
2023-01-26T09:50:46.732Z,88.50
2023-01-26T09:53:23.708Z,88.60
2023-01-26T09:55:51.988Z,88.60
2023-01-26T09:58:38.855Z,88.70
2023-01-26T10:01:15.036Z,88.60
2023-01-26T10:03:50.307Z,88.70
2023-01-26T10:06:29.116Z,88.60
2023-01-26T10:08:59.273Z,88.70
2023-01-26T10:11:28.914Z,88.80
2023-01-26T10:14:00.589Z,88.90
2023-01-26T10:16:27.659Z,89.00
2023-01-26T10:19:14.274Z,89.10
2023-01-26T10:21:45.702Z,89.20
2023-01-26T10:24:14.200Z,89.20
2023-01-26T10:26:41.868Z,89.40
2023-01-26T10:29:16.158Z,89.40
2023-01-26T10:31:44.881Z,89.50
2023-01-26T10:34:16.195Z,89.50
2023-01-26T10:36:46.813Z,89.50
2023-01-26T10:39:15.936Z,89.50
2023-01-26T10:41:57.838Z,89.50
2023-01-26T10:44:35.542Z,90.10
2023-01-26T10:47:04.560Z,89.60
2023-01-26T10:49:34.166Z,89.70
2023-01-26T10:52:17.753Z,89.80
2023-01-26T10:54:51.934Z,89.90
2023-01-26T10:57:30.704Z,90.00
2023-01-26T11:00:00.416Z,90.00
2023-01-26T11:02:30.318Z,90.00
2023-01-26T11:05:09.533Z,90.00
2023-01-26T11:07:42.012Z,90.10
2023-01-26T11:10:35.054Z,90.10
2023-01-26T11:13:13.776Z,90.10
2023-01-26T11:16:06.661Z,90.20
2023-01-26T11:19:12.399Z,90.20
2023-01-26T11:21:48.588Z,90.20
2023-01-26T11:24:39.851Z,90.20
2023-01-26T11:27:15.143Z,90.20
2023-01-26T11:30:06.477Z,90.10
2023-01-26T11:32:47.095Z,90.20
2023-01-26T11:35:23.606Z,90.30
2023-01-26T11:38:21.230Z,90.30
2023-01-26T11:41:01.367Z,90.20
2023-01-26T11:44:07.916Z,90.20
2023-01-26T11:47:08.904Z,90.10
2023-01-26T11:49:38.600Z,90.10
2023-01-26T11:52:11.700Z,90.20
2023-01-26T11:55:14.694Z,90.20
2023-01-26T11:58:08.733Z,90.10
2023-01-26T12:00:45.887Z,90.20
2023-01-26T12:03:24.874Z,90.30
2023-01-26T12:05:55.530Z,90.30
2023-01-26T12:08:40.761Z,90.30
2023-01-26T12:11:23.840Z,90.10
2023-01-26T12:14:02.787Z,90.10
2023-01-26T12:16:41.612Z,90.10
2023-01-26T12:19:27.274Z,90.00
2023-01-26T12:21:57.444Z,90.00
2023-01-26T12:25:16.073Z,90.10
2023-01-26T12:27:44.384Z,90.10
2023-01-26T12:30:30.448Z,90.20
2023-01-26T12:33:03.847Z,90.20
2023-01-26T12:36:03.755Z,90.10
2023-01-26T12:38:49.110Z,89.80
2023-01-26T12:41:46.457Z,89.50
2023-01-26T12:44:31.862Z,89.40
2023-01-26T12:47:08.393Z,89.00
2023-01-26T12:49:42.999Z,89.00
2023-01-26T12:52:23.639Z,90.00
2023-01-26T12:54:59.828Z,89.40
2023-01-26T12:57:36.720Z,89.30
2023-01-26T13:00:23.681Z,89.10
2023-01-26T13:02:56.144Z,89.30
2023-01-26T13:05:33.829Z,89.20
2023-01-26T13:08:32.611Z,88.70
2023-01-26T13:11:06.642Z,88.50
2023-01-26T13:13:51.953Z,88.50
2023-01-26T13:16:19.144Z,88.70
2023-01-26T13:18:55.743Z,88.60
2023-01-26T13:21:44.689Z,88.50
2023-01-26T13:24:17.538Z,88.00
2023-01-26T13:26:49.665Z,86.90
2023-01-26T13:29:25.614Z,87.00
2023-01-26T13:31:56.630Z,86.70
2023-01-26T13:34:32.091Z,86.60
2023-01-26T13:37:08.912Z,86.10
2023-01-26T13:39:37.526Z,85.80
2023-01-26T13:42:18.282Z,85.60
2023-01-26T13:44:52.199Z,85.30
2023-01-26T13:47:28.451Z,87.00
2023-01-26T13:49:55.149Z,86.20
2023-01-26T13:52:22.876Z,86.10
2023-01-26T13:54:51.975Z,86.30
2023-01-26T13:57:27.265Z,86.20
2023-01-26T14:00:01.881Z,85.70
2023-01-26T14:02:34.076Z,85.80
2023-01-26T14:05:05.483Z,85.80
2023-01-26T14:07:39.788Z,85.80
2023-01-26T14:10:07.874Z,85.70
2023-01-26T14:12:41.652Z,85.50
2023-01-26T14:15:25.261Z,85.20
2023-01-26T14:18:04.509Z,84.70
2023-01-26T14:20:36.004Z,84.60
2023-01-26T14:23:23.243Z,84.40
2023-01-26T14:26:01.895Z,85.00
2023-01-26T14:28:34.337Z,85.30
2023-01-26T14:31:13.010Z,85.30
2023-01-26T14:33:40.357Z,83.60
2023-01-26T14:36:08.045Z,83.20
2023-01-26T14:38:49.171Z,82.50
2023-01-26T14:41:28.534Z,83.20
2023-01-26T14:43:59.863Z,83.00
2023-01-26T14:46:35.934Z,83.00
2023-01-26T14:49:12.644Z,82.80
2023-01-26T14:51:39.638Z,83.00
2023-01-26T14:54:18.579Z,83.00
2023-01-26T14:56:48.621Z,83.10
2023-01-26T14:59:25.551Z,82.90
2023-01-26T15:02:14.884Z,83.00
2023-01-26T15:04:44.268Z,82.80
2023-01-26T15:07:36.886Z,83.10
2023-01-26T15:11:21.727Z,83.10
2023-01-26T15:13:56.135Z,83.10
2023-01-26T15:16:25.406Z,83.10
2023-01-26T15:19:04.846Z,83.10
2023-01-26T15:21:34.354Z,83.20
2023-01-26T15:24:01.390Z,83.30
2023-01-26T15:26:32.484Z,83.30
2023-01-26T15:29:01.212Z,83.20
2023-01-26T15:31:35.100Z,83.10
2023-01-26T15:34:08.305Z,83.10
2023-01-26T15:36:48.060Z,84.00
2023-01-26T15:39:20.108Z,83.10
2023-01-26T15:42:21.164Z,83.20
2023-01-26T15:44:50.030Z,83.10
2023-01-26T15:47:16.770Z,83.10
2023-01-26T15:49:43.561Z,83.10
2023-01-26T15:52:17.153Z,83.10
2023-01-26T15:54:44.378Z,83.30
2023-01-26T15:57:14.214Z,83.30
2023-01-26T15:59:43.188Z,83.10
2023-01-26T16:02:19.146Z,83.30
2023-01-26T16:04:47.267Z,83.90
2023-01-26T16:07:21.651Z,83.10
2023-01-26T16:09:49.138Z,83.10
2023-01-26T16:12:32.975Z,83.20
2023-01-26T16:15:00.444Z,83.10
2023-01-26T16:17:27.561Z,83.20
2023-01-26T16:19:54.328Z,83.30
2023-01-26T16:22:21.110Z,83.30
2023-01-26T16:24:47.889Z,83.30
2023-01-26T16:27:14.611Z,84.20
2023-01-26T16:29:41.501Z,83.50
2023-01-26T16:32:44.797Z,83.40
2023-01-26T16:35:20.456Z,83.40
2023-01-26T16:37:47.353Z,83.60
2023-01-26T16:40:16.356Z,83.70
2023-01-26T16:42:47.764Z,83.70
2023-01-26T16:45:17.369Z,83.80
2023-01-26T16:47:44.481Z,83.90
2023-01-26T16:50:11.979Z,83.90
2023-01-26T16:52:41.087Z,83.90
2023-01-26T16:55:13.002Z,83.90
2023-01-26T16:57:43.921Z,84.00
2023-01-26T17:00:16.526Z,84.00
2023-01-26T17:02:47.826Z,84.10
2023-01-26T17:05:17.096Z,84.20
2023-01-26T17:07:44.423Z,84.20
2023-01-26T17:10:13.163Z,83.90
2023-01-26T17:12:40.272Z,83.90
2023-01-26T17:15:10.628Z,83.90
2023-01-26T17:17:37.726Z,83.60
2023-01-26T17:20:18.006Z,83.70
2023-01-26T17:22:46.138Z,84.60
2023-01-26T17:25:18.679Z,83.60
2023-01-26T17:27:46.726Z,83.60
2023-01-26T17:30:13.700Z,83.60
2023-01-26T17:32:42.361Z,83.60
2023-01-26T17:35:09.497Z,83.50
2023-01-26T17:37:42.568Z,83.50
2023-01-26T17:40:13.168Z,83.50
2023-01-26T17:42:40.033Z,83.60
2023-01-26T17:45:08.075Z,83.50
2023-01-26T17:47:35.309Z,83.60
2023-01-26T17:50:02.235Z,83.60
2023-01-26T17:52:31.262Z,83.60
2023-01-26T17:54:58.406Z,83.60
2023-01-26T17:57:25.275Z,83.60
2023-01-26T17:59:52.083Z,83.60
2023-01-26T18:02:18.922Z,83.50
2023-01-26T18:04:45.724Z,83.50
2023-01-26T18:07:12.564Z,83.50
2023-01-26T18:09:39.276Z,83.60
2023-01-26T18:12:06.597Z,83.60
2023-01-26T18:14:33.463Z,83.50
2023-01-26T18:17:00.292Z,83.50
2023-01-26T18:19:27.259Z,83.60
2023-01-26T18:21:54.025Z,83.60
2023-01-26T18:24:20.745Z,83.60
2023-01-26T18:26:49.425Z,83.60
2023-01-26T18:29:16.807Z,83.60
2023-01-26T18:31:43.756Z,83.70
2023-01-26T18:34:11.483Z,83.70
2023-01-26T18:36:50.062Z,83.70
2023-01-26T18:39:17.974Z,83.70
2023-01-26T18:41:44.811Z,83.70
2023-01-26T18:44:11.623Z,83.60
2023-01-26T18:46:38.756Z,83.80
2023-01-26T18:49:05.714Z,83.70
2023-01-26T18:51:35.451Z,83.60
2023-01-26T18:54:04.223Z,83.80
2023-01-26T18:56:31.932Z,83.60
2023-01-26T18:58:58.982Z,83.70
2023-01-26T19:01:26.341Z,83.70
2023-01-26T19:03:57.329Z,83.60
2023-01-26T19:06:26.050Z,83.60
2023-01-26T19:08:58.584Z,84.40
2023-01-26T19:11:29.566Z,83.60
2023-01-26T19:13:57.172Z,83.60
2023-01-26T19:16:24.083Z,83.60
2023-01-26T19:18:51.924Z,83.60
2023-01-26T19:21:21.823Z,83.50
2023-01-26T19:23:49.113Z,83.40
2023-01-26T19:26:20.890Z,83.50
2023-01-26T19:28:50.559Z,83.40
2023-01-26T19:31:19.478Z,83.40
2023-01-26T19:33:54.353Z,83.50
2023-01-26T19:36:22.123Z,83.40
2023-01-26T19:38:49.249Z,83.40
2023-01-26T19:41:16.627Z,83.40
2023-01-26T19:43:45.290Z,83.40
2023-01-26T19:46:13.444Z,83.40
2023-01-26T19:48:40.848Z,83.40
2023-01-26T19:51:08.546Z,84.20
2023-01-26T19:53:40.713Z,83.40
2023-01-26T19:56:23.423Z,83.40
2023-01-26T19:58:52.698Z,83.40
2023-01-26T20:01:20.889Z,83.20
2023-01-26T20:03:58.785Z,83.30
2023-01-26T20:06:28.743Z,83.20
2023-01-26T20:08:56.164Z,83.20
2023-01-26T20:11:25.252Z,83.20
2023-01-26T20:14:00.121Z,83.20
2023-01-26T20:16:28.382Z,83.20
2023-01-26T20:18:56.814Z,83.20
2023-01-26T20:21:24.148Z,83.20
2023-01-26T20:23:54.838Z,83.20
2023-01-26T20:26:23.946Z,83.20
2023-01-26T20:28:51.667Z,83.10
2023-01-26T20:31:21.132Z,83.20
2023-01-26T20:33:49.762Z,83.20
2023-01-26T20:36:20.518Z,83.20
2023-01-26T20:38:48.446Z,83.20
2023-01-26T20:41:18.690Z,83.20
2023-01-26T20:44:03.521Z,83.10
2023-01-26T20:46:34.097Z,83.10
2023-01-26T20:49:00.985Z,83.10
2023-01-26T20:51:31.295Z,83.10
2023-01-26T20:53:58.348Z,83.20
2023-01-26T20:56:25.582Z,83.10
2023-01-26T20:58:54.131Z,83.30
2023-01-26T21:01:22.380Z,83.20
2023-01-26T21:03:49.577Z,83.20
2023-01-26T21:06:21.325Z,83.20
2023-01-26T21:08:49.714Z,83.20
2023-01-26T21:11:17.383Z,83.30
2023-01-26T21:13:45.376Z,83.20
2023-01-26T21:16:16.736Z,83.30
2023-01-26T21:18:44.052Z,83.50
2023-01-26T21:21:14.609Z,83.30
2023-01-26T21:23:41.550Z,83.40
2023-01-26T21:26:14.412Z,83.40
2023-01-26T21:28:44.810Z,83.40
2023-01-26T21:31:15.454Z,83.50
2023-01-26T21:33:47.548Z,83.50
2023-01-26T21:36:17.187Z,83.50
2023-01-26T21:38:45.996Z,83.50
2023-01-26T21:41:34.772Z,83.60
2023-01-26T21:44:03.005Z,83.60
2023-01-26T21:46:30.385Z,83.60
2023-01-26T21:48:57.366Z,83.70
2023-01-26T21:51:43.952Z,83.70
2023-01-26T21:54:11.573Z,83.70
2023-01-26T21:56:38.903Z,83.70
2023-01-26T21:59:11.390Z,83.70
2023-01-26T22:01:41.087Z,83.90
2023-01-26T22:04:10.795Z,83.70
2023-01-26T22:06:38.083Z,83.80
2023-01-26T22:09:06.439Z,83.90
2023-01-26T22:11:36.511Z,83.90
2023-01-26T22:14:03.427Z,83.90
2023-01-26T22:16:31.643Z,83.90
2023-01-26T22:18:58.546Z,83.90
2023-01-26T22:21:26.322Z,84.00
2023-01-26T22:23:59.346Z,84.00
2023-01-26T22:26:26.243Z,84.10
2023-01-26T22:28:58.564Z,84.10
2023-01-26T22:31:27.883Z,84.20
2023-01-26T22:33:56.824Z,84.20
2023-01-26T22:36:23.820Z,84.30
2023-01-26T22:38:51.226Z,84.30
2023-01-26T22:41:23.621Z,84.30
2023-01-26T22:43:52.497Z,84.40
2023-01-26T22:46:24.089Z,84.30
2023-01-26T22:48:51.800Z,84.30
2023-01-26T22:51:22.418Z,84.40
2023-01-26T22:53:53.690Z,84.40
2023-01-26T22:56:21.755Z,84.30
2023-01-26T22:58:59.529Z,84.40
2023-01-26T23:01:29.357Z,84.50
2023-01-26T23:03:59.840Z,84.50
2023-01-26T23:06:26.894Z,84.40
2023-01-26T23:08:54.467Z,84.50
2023-01-26T23:11:26.552Z,84.60
2023-01-26T23:13:54.990Z,84.60
2023-01-26T23:16:23.592Z,84.60
2023-01-26T23:18:52.052Z,84.60
2023-01-26T23:21:19.150Z,84.60
2023-01-26T23:23:45.838Z,84.70
2023-01-26T23:26:12.682Z,84.60
2023-01-26T23:28:41.637Z,84.70
2023-01-26T23:31:09.131Z,84.70
2023-01-26T23:33:36.561Z,84.70
2023-01-26T23:36:04.707Z,84.70
2023-01-26T23:38:32.217Z,84.70
2023-01-26T23:41:00.472Z,84.70
2023-01-26T23:43:27.787Z,84.80
2023-01-26T23:45:57.946Z,84.80
2023-01-26T23:48:25.762Z,84.80
2023-01-26T23:51:00.477Z,84.80
2023-01-26T23:53:27.839Z,84.90
2023-01-26T23:55:54.825Z,84.80
2023-01-26T23:58:22.044Z,84.80
